MMSD/SJD METAR and TAF weather

Enter ICAO airport designator
Station Type Date Time Source
MMSD METAR 2020/09/22 01:45 UTC NOAA

MMSD 220145Z 15010KT 10SM FEW250 29/22 A2991 RMK 8/008


Station Type Date Time Source
MMSD Decoded METAR 2020/09/22 01:45 UTC NOAA

San Jose Del Cabo , Mexico (MMSD) 23-09N 109-42W
Sep 21, 2020 - 09:45 PM EDT / 2020.09.22 0145 UTC
Wind: from the SSE (150 degrees) at 12 MPH (10 KT):0
Visibility: 10 mile(s):0
Sky conditions: mostly clear
Temperature: 84 F (29 C)
Dew Point: 71 F (22 C)
Relative Humidity: 65%
Pressure (altimeter): 29.91 in. Hg (1012 hPa)
ob: MMSD 220145Z 15010KT 10SM FEW250 29/22 A2991 RMK 8/008
cycle: 2

Station Type Date Time Source
MMSD TAF 2020/09/21 18:08 UTC NOAA

TAF MMSD 211702Z 2118/2218 13015KT P6SM BKN020CB BKN080
TEMPO 2118/2122 4SM RA
BECMG 2123/2124 17010KT
TEMPO 2202/2206 6SM TSRA
FM221200 00000KT P6SM SCT020 BKN090

Example: see airport list